createdAt,value
2023-03-22T00:01:36.891Z,2.40
2023-03-22T00:04:04.418Z,2.40
2023-03-22T00:06:31.855Z,2.28
2023-03-22T00:08:59.529Z,2.22
2023-03-22T00:11:27.164Z,2.50
2023-03-22T00:13:54.898Z,2.55
2023-03-22T00:16:23.304Z,2.45
2023-03-22T00:18:53.883Z,2.92
2023-03-22T00:21:21.409Z,2.42
2023-03-22T00:23:48.926Z,2.83
2023-03-22T00:26:18.999Z,3.10
2023-03-22T00:28:46.664Z,2.55
2023-03-22T00:31:14.264Z,2.53
2023-03-22T00:33:41.800Z,2.47
2023-03-22T00:36:12.469Z,2.53
2023-03-22T00:38:44.399Z,2.70
2023-03-22T00:41:15.864Z,2.42
2023-03-22T00:43:43.548Z,2.92
2023-03-22T00:46:13.111Z,2.47
2023-03-22T00:48:41.217Z,2.95
2023-03-22T00:51:11.138Z,3.33
2023-03-22T00:53:41.890Z,3.03
2023-03-22T00:56:10.750Z,3.40
2023-03-22T00:58:38.231Z,3.10
2023-03-22T01:01:07.302Z,3.15
2023-03-22T01:03:34.981Z,2.78
2023-03-22T01:06:02.802Z,2.60
2023-03-22T01:08:33.120Z,2.83
2023-03-22T01:11:01.544Z,2.92
2023-03-22T01:13:29.859Z,3.00
2023-03-22T01:15:57.503Z,2.65
2023-03-22T01:18:24.956Z,2.60
2023-03-22T01:20:54.121Z,2.38
2023-03-22T01:23:21.799Z,2.65
2023-03-22T01:25:50.581Z,2.60
2023-03-22T01:28:18.026Z,2.22
2023-03-22T01:30:45.600Z,2.47
2023-03-22T01:33:13.148Z,2.38
2023-03-22T01:35:41.056Z,2.38
2023-03-22T01:38:08.657Z,2.20
2023-03-22T01:40:39.275Z,2.55
2023-03-22T01:43:14.234Z,2.28
2023-03-22T01:48:16.679Z,2.08
2023-03-22T01:50:50.574Z,1.88
2023-03-22T01:53:23.507Z,2.42
2023-03-22T01:55:52.447Z,2.47
2023-03-22T01:58:21.372Z,2.10
2023-03-22T02:00:50.372Z,2.42
2023-03-22T02:03:25.713Z,2.63
2023-03-22T02:05:54.875Z,2.10
2023-03-22T02:08:22.343Z,2.33
2023-03-22T02:10:49.890Z,2.10
2023-03-22T02:13:38.838Z,2.38
2023-03-22T02:16:16.794Z,2.03
2023-03-22T02:18:57.093Z,2.83
2023-03-22T02:21:54.574Z,2.70
2023-03-22T02:24:47.726Z,2.80
2023-03-22T02:30:05.009Z,2.30
2023-03-22T02:33:06.585Z,2.50
2023-03-22T02:35:47.270Z,2.40
2023-03-22T02:38:30.319Z,2.70
2023-03-22T02:41:09.058Z,2.80
2023-03-22T02:43:39.753Z,2.45
2023-03-22T02:46:12.285Z,2.65
2023-03-22T02:48:45.182Z,2.72
2023-03-22T02:51:19.933Z,2.28
2023-03-22T02:56:24.293Z,2.22
2023-03-22T02:58:54.939Z,2.13
2023-03-22T03:01:29.251Z,2.63
2023-03-22T03:04:00.966Z,2.42
2023-03-22T03:06:33.230Z,2.30
2023-03-22T03:09:04.924Z,2.33
2023-03-22T03:11:34.110Z,2.55
2023-03-22T03:14:01.609Z,2.17
2023-03-22T03:16:36.466Z,2.58
2023-03-22T03:19:12.506Z,2.13
2023-03-22T03:21:51.095Z,2.30
2023-03-22T03:24:23.776Z,2.50
2023-03-22T03:26:59.731Z,2.58
2023-03-22T03:29:33.281Z,2.17
2023-03-22T03:32:08.132Z,2.20
2023-03-22T03:37:08.621Z,2.42
2023-03-22T03:39:40.501Z,1.92
2023-03-22T03:42:14.272Z,2.10
2023-03-22T03:44:42.449Z,2.00
2023-03-22T03:47:11.326Z,2.13
2023-03-22T03:49:39.114Z,2.30
2023-03-22T03:52:06.870Z,1.60
2023-03-22T03:54:34.501Z,2.08
2023-03-22T03:57:03.972Z,1.88
2023-03-22T03:59:32.972Z,1.85
2023-03-22T04:02:00.486Z,2.05
2023-03-22T04:04:29.898Z,1.85
2023-03-22T04:06:59.532Z,2.20
2023-03-22T04:09:28.724Z,1.60
2023-03-22T04:11:57.255Z,2.30
2023-03-22T04:14:25.674Z,2.30
2023-03-22T04:16:54.928Z,1.73
2023-03-22T04:19:23.152Z,2.10
2023-03-22T04:21:53.037Z,1.90
2023-03-22T04:24:21.428Z,1.63
2023-03-22T04:26:48.919Z,1.73
2023-03-22T04:29:16.460Z,1.90
2023-03-22T04:31:44.117Z,1.92
2023-03-22T04:34:12.925Z,1.85
2023-03-22T04:36:41.057Z,2.13
2023-03-22T04:39:10.921Z,1.92
2023-03-22T04:41:38.760Z,2.28
2023-03-22T04:44:07.520Z,2.30
2023-03-22T04:49:04.463Z,1.70
2023-03-22T04:51:33.384Z,1.98
2023-03-22T04:54:01.102Z,1.83
2023-03-22T04:56:28.540Z,1.70
2023-03-22T04:58:56.005Z,2.17
2023-03-22T05:01:23.484Z,2.50
2023-03-22T05:03:50.983Z,2.22
2023-03-22T05:06:18.651Z,1.95
2023-03-22T05:08:47.435Z,2.00
2023-03-22T05:11:17.474Z,1.85
2023-03-22T05:13:45.205Z,2.25
2023-03-22T05:16:12.868Z,2.35
2023-03-22T05:18:45.655Z,2.35
2023-03-22T05:21:15.284Z,2.38
2023-03-22T05:23:43.134Z,2.30
2023-03-22T05:26:15.966Z,2.00
2023-03-22T05:28:44.128Z,2.00
2023-03-22T05:31:14.582Z,1.92
2023-03-22T05:33:42.375Z,2.28
2023-03-22T05:36:11.583Z,2.10
2023-03-22T05:38:39.231Z,2.15
2023-03-22T05:41:07.290Z,2.47
2023-03-22T05:43:36.089Z,2.65
2023-03-22T05:46:06.289Z,2.58
2023-03-22T05:48:33.729Z,2.33
2023-03-22T05:51:03.290Z,2.47
2023-03-22T05:53:31.737Z,2.08
2023-03-22T05:56:00.591Z,2.60
2023-03-22T05:58:28.923Z,2.50
2023-03-22T06:01:00.881Z,1.83
2023-03-22T06:03:28.882Z,2.60
2023-03-22T06:05:56.348Z,2.28
2023-03-22T06:08:26.520Z,2.05
2023-03-22T06:10:54.829Z,2.58
2023-03-22T06:13:22.869Z,2.40
2023-03-22T06:15:50.333Z,2.63
2023-03-22T06:18:19.138Z,2.83
2023-03-22T06:20:46.683Z,2.28
2023-03-22T06:23:14.130Z,2.38
2023-03-22T06:25:41.580Z,2.25
2023-03-22T06:28:09.032Z,2.78
2023-03-22T06:30:36.528Z,2.60
2023-03-22T06:33:05.924Z,2.45
2023-03-22T06:35:34.899Z,1.98
2023-03-22T06:38:02.357Z,2.72
2023-03-22T06:40:30.237Z,2.42
2023-03-22T06:42:57.722Z,2.85
2023-03-22T06:45:25.134Z,3.08
2023-03-22T06:47:52.710Z,3.22
2023-03-22T06:50:20.209Z,3.17
2023-03-22T06:52:48.975Z,3.65
2023-03-22T06:57:43.975Z,2.90
2023-03-22T07:00:12.775Z,3.55
2023-03-22T07:05:08.197Z,2.10
2023-03-22T07:07:35.687Z,0.50
2023-03-22T07:10:04.995Z,3.05
2023-03-22T07:12:32.644Z,3.17
2023-03-22T07:15:00.269Z,3.60
2023-03-22T07:17:27.788Z,3.58
2023-03-22T07:19:55.190Z,3.15
2023-03-22T07:22:24.643Z,3.65
2023-03-22T07:24:57.696Z,3.95
2023-03-22T07:27:27.709Z,4.20
2023-03-22T07:29:55.180Z,3.17
2023-03-22T07:32:22.725Z,2.50
2023-03-22T07:34:50.252Z,1.63
2023-03-22T07:37:17.695Z,4.30
2023-03-22T07:39:45.252Z,1.38
2023-03-22T07:42:12.899Z,2.50
2023-03-22T07:44:41.963Z,2.08
2023-03-22T07:47:09.868Z,1.15
2023-03-22T07:49:37.560Z,2.50
2023-03-22T07:52:05.463Z,1.88
2023-03-22T07:54:34.489Z,3.60
2023-03-22T07:57:02.886Z,1.80
2023-03-22T07:59:31.199Z,1.58
2023-03-22T08:02:00.152Z,3.28
2023-03-22T08:04:27.694Z,3.40
2023-03-22T08:06:58.539Z,2.97
2023-03-22T08:09:26.344Z,2.45
2023-03-22T08:11:54.246Z,1.88
2023-03-22T08:14:27.486Z,2.10
2023-03-22T08:17:04.891Z,2.00
2023-03-22T08:19:33.012Z,0.57
2023-03-22T08:22:00.996Z,2.35
2023-03-22T08:24:28.606Z,2.78
2023-03-22T08:26:56.131Z,2.33
2023-03-22T08:29:23.742Z,2.63
2023-03-22T08:31:51.781Z,2.40
2023-03-22T08:34:20.800Z,1.58
2023-03-22T08:36:48.640Z,2.15
2023-03-22T08:39:16.142Z,1.30
2023-03-22T08:41:43.632Z,2.28
2023-03-22T08:44:11.281Z,1.20
2023-03-22T08:46:38.727Z,1.27
2023-03-22T08:49:06.192Z,1.90
2023-03-22T08:51:34.979Z,1.50
2023-03-22T08:54:04.362Z,1.80
2023-03-22T08:56:32.308Z,1.10
2023-03-22T08:58:59.783Z,2.53
2023-03-22T09:01:27.398Z,1.77
2023-03-22T09:03:54.918Z,2.20
2023-03-22T09:06:22.362Z,1.92
2023-03-22T09:08:52.125Z,1.55
2023-03-22T09:11:20.743Z,1.70
2023-03-22T09:16:16.442Z,0.75
2023-03-22T09:18:44.579Z,0.73
2023-03-22T09:21:12.211Z,1.70
2023-03-22T09:23:40.392Z,0.88
2023-03-22T09:26:11.040Z,1.25
2023-03-22T09:28:38.649Z,1.38
2023-03-22T09:31:09.327Z,1.20
2023-03-22T09:33:38.417Z,1.60
2023-03-22T09:36:06.531Z,0.82
2023-03-22T09:38:35.335Z,0.98
2023-03-22T09:41:06.239Z,1.23
2023-03-22T09:43:37.720Z,1.58
2023-03-22T09:46:09.679Z,1.20
2023-03-22T09:48:41.819Z,1.10
2023-03-22T09:51:24.339Z,0.77
2023-03-22T09:53:51.771Z,0.90
2023-03-22T09:56:24.861Z,1.10
2023-03-22T09:59:00.882Z,1.20
2023-03-22T10:01:37.172Z,1.10
2023-03-22T10:04:26.126Z,1.08
2023-03-22T10:07:01.602Z,1.27
2023-03-22T10:09:33.598Z,0.45
2023-03-22T10:12:09.486Z,0.70
2023-03-22T10:14:41.836Z,0.85
2023-03-22T10:17:13.163Z,1.13
2023-03-22T10:19:50.532Z,0.90
2023-03-22T10:22:24.944Z,0.88
2023-03-22T10:24:54.365Z,1.40
2023-03-22T10:27:23.822Z,0.95
2023-03-22T10:29:57.745Z,0.88
2023-03-22T10:32:32.635Z,1.10
2023-03-22T10:35:00.205Z,1.25
2023-03-22T10:37:32.360Z,1.00
2023-03-22T10:40:07.031Z,0.77
2023-03-22T10:42:39.215Z,0.88
2023-03-22T10:45:13.085Z,1.00
2023-03-22T10:47:46.362Z,1.00
2023-03-22T10:50:18.770Z,1.00
2023-03-22T10:52:52.889Z,0.68
2023-03-22T10:55:20.322Z,0.70
2023-03-22T10:57:57.081Z,0.88
2023-03-22T11:00:28.644Z,0.60
2023-03-22T11:03:00.387Z,0.70
2023-03-22T11:05:30.198Z,0.52
2023-03-22T11:07:59.070Z,0.57
2023-03-22T11:10:29.430Z,0.60
2023-03-22T11:13:12.311Z,0.45
2023-03-22T11:15:43.135Z,0.68
2023-03-22T11:18:15.682Z,0.30
2023-03-22T11:20:53.229Z,1.00
2023-03-22T11:23:22.218Z,0.40
2023-03-22T11:25:51.611Z,0.52
2023-03-22T11:28:21.196Z,0.50
2023-03-22T11:31:06.002Z,0.60
2023-03-22T11:33:35.182Z,0.75
2023-03-22T11:36:04.579Z,0.65
2023-03-22T11:38:37.853Z,0.57
2023-03-22T11:41:08.720Z,0.70
2023-03-22T11:43:38.189Z,0.60
2023-03-22T11:46:09.375Z,0.30
2023-03-22T11:48:37.854Z,0.77
2023-03-22T11:51:09.751Z,0.65
2023-03-22T11:53:40.403Z,1.35
2023-03-22T11:56:11.257Z,0.80
2023-03-22T11:58:59.927Z,0.73
2023-03-22T12:01:45.317Z,0.57
2023-03-22T12:04:18.698Z,0.40
2023-03-22T12:06:46.231Z,0.77
2023-03-22T12:09:26.005Z,0.80
2023-03-22T12:11:57.152Z,0.55
2023-03-22T12:14:27.500Z,0.60
2023-03-22T12:17:00.753Z,0.50
2023-03-22T12:19:42.828Z,0.63
2023-03-22T12:22:13.802Z,0.50
2023-03-22T12:24:42.908Z,0.50
2023-03-22T12:27:18.543Z,0.70
2023-03-22T12:29:52.715Z,0.80
2023-03-22T12:32:27.109Z,0.60
2023-03-22T12:35:09.268Z,0.40
2023-03-22T12:37:47.197Z,0.50
2023-03-22T12:40:22.805Z,0.77
2023-03-22T12:43:00.238Z,0.68
2023-03-22T12:45:29.659Z,0.47
2023-03-22T12:48:04.759Z,0.60
2023-03-22T12:50:38.069Z,0.68
2023-03-22T12:53:06.545Z,0.82
2023-03-22T12:55:36.614Z,0.40
2023-03-22T12:58:07.431Z,0.22
2023-03-22T13:00:43.200Z,0.28
2023-03-22T13:03:24.327Z,0.63
2023-03-22T13:06:03.111Z,0.75
2023-03-22T13:09:04.491Z,0.13
2023-03-22T13:11:32.095Z,0.15
2023-03-22T13:13:59.627Z,0.52
2023-03-22T13:16:51.727Z,0.47
2023-03-22T13:19:31.384Z,0.82
2023-03-22T13:22:20.928Z,0.50
2023-03-22T13:25:07.038Z,0.88
2023-03-22T13:27:37.805Z,0.57
2023-03-22T13:30:15.147Z,0.45
2023-03-22T13:32:52.555Z,0.50
2023-03-22T13:35:28.191Z,0.77
2023-03-22T13:38:03.616Z,0.30
2023-03-22T13:40:36.579Z,0.50
2023-03-22T13:43:23.372Z,0.43
2023-03-22T13:46:13.701Z,1.08
2023-03-22T13:48:48.835Z,0.30
2023-03-22T13:51:22.510Z,0.30
2023-03-22T13:54:00.201Z,0.22
2023-03-22T13:56:52.675Z,0.40
2023-03-22T14:01:52.378Z,0.50
2023-03-22T14:04:26.549Z,0.28
2023-03-22T14:06:59.842Z,0.40
2023-03-22T14:09:32.267Z,0.77
2023-03-22T14:12:06.324Z,0.50
2023-03-22T14:14:40.497Z,0.60
2023-03-22T14:17:17.632Z,0.30
2023-03-22T14:19:45.752Z,0.50
